WEATHER DATA

YESTERDAY
Time Temp. Dewp. Hum. Wind dir Wind speed Wind gust Bar. 1h Prec. 24h Prec.
00:18 1.6 1.6 100 90 0.6 1.4 1008.6 0.0000 0.0000
00:28 1.7 1.7 100 25 0.3 1.4 1008.6 0.0000 0.0000
00:38 1.7 1.7 100 4 0.3 1.7 1008.4 0.0000 0.0000
00:47 1.8 1.8 100 344 0.3 1.4 1008.5 0.0000 0.0000
00:58 1.8 1.8 100 18 0.3 1.4 1008.5 0.0000 0.0000
01:08 1.8 1.8 100 285 0.6 1.7 1008.4 0.0000 0.0000
01:17 1.8 1.8 100 350 0.8 1.9 1008.5 0.0000 0.0000
01:28 1.9 1.9 100 332 0.6 1.9 1008.3 0.0000 0.0000
01:38 1.9 1.9 100 270 0.3 1.7 1008.5 0.0000 0.0000
01:48 2 2 100 302 0.3 1.4 1008.4 0.0000 0.0000
01:58 2 2 100 343 0.8 1.9 1008.4 0.0000 0.0000
02:08 2 2 100 296 0.6 1.7 1008.6 0.0000 0.0000
02:18 2.1 2.1 100 337 0.6 1.9 1008.5 0.0000 0.0000
02:28 2.1 2.1 100 325 0.6 1.7 1008.5 0.0000 0.0000
02:38 2.2 2.2 100 341 0.8 2.2 1008.5 0.0000 0.0000
02:48 2.2 2.2 100 340 0.6 2.2 1008.5 0.0000 0.0000
02:58 2.2 2.2 100 351 0.6 1.7 1008.4 0.0000 0.0000
03:08 2.2 2.2 100 333 0.6 1.4 1008.6 0.0000 0.0000
03:18 2.2 2.2 100 354 0.6 1.7 1008.5 0.0000 0.0000
03:28 2.3 2.3 100 57 0.6 1.7 1008.5 0.0000 0.0000
03:38 2.3 2.3 100 25 0.3 1.9 1008.5 0.0000 0.0000
03:49 2.3 2.3 100 2 0.6 1.7 1008.4 0.0000 0.0000
03:58 2.3 2.3 100 12 0.6 1.9 1008.3 0.0000 0.0000
04:08 2.3 2.3 100 5 0.6 2.2 1008.3 0.0000 0.0000
04:19 2.3 2.3 100 15 0.6 2.2 1008.5 0.0000 0.0000
04:29 2.4 2.4 100 23 0.6 1.9 1008.5 0.0000 0.0000
04:38 2.4 2.4 100 8 0.6 1.4 1008.6 0.0000 0.0000
04:48 2.4 2.4 100 2 0.6 2.2 1008.5 0.0000 0.0000
04:59 2.5 2.5 100 339 0.6 1.4 1008.7 0.0000 0.0000
05:09 2.5 2.5 100 353 0.6 1.9 1008.8 0.0000 0.0000
05:18 2.5 2.5 100 351 0.6 1.9 1009 0.0000 0.0000
05:29 2.5 2.5 100 18 0.6 1.7 1008.8 0.0000 0.0000
05:39 2.5 2.5 100 26 0.6 1.7 1008.9 0.0000 0.0000
05:48 2.5 2.5 100 28 0.6 2.2 1009.1 0.0000 0.0000
05:59 2.6 2.6 100 45 0.6 1.7 1009.1 0.0000 0.0000
06:09 2.6 2.6 100 0 0.6 1.7 1009 0.0000 0.0000
06:18 2.6 2.6 100 334 0.6 2.5 1009 0.0000 0.0000
06:28 2.6 2.6 100 329 0.6 1.7 1009.2 0.0000 0.0000
06:39 2.6 2.6 100 320 0.6 1.7 1009.3 0.0000 0.0000
06:49 2.6 2.6 100 333 0.6 1.9 1009.3 0.0000 0.0000
06:58 2.7 2.7 100 296 0.6 1.9 1009.6 0.0000 0.0000
07:09 2.7 2.7 100 293 0.6 1.9 1009.6 0.0000 0.0000
07:19 2.7 2.7 100 304 0.6 1.4 1009.7 0.0000 0.0000
07:29 2.7 2.7 100 320 0.6 1.7 1009.8 0.0000 0.0000
07:38 2.7 2.7 100 0 0.6 1.9 1009.9 0.0000 0.0000
07:49 2.8 2.8 100 0 0.8 1.7 1010 0.0000 0.0000
07:59 2.8 2.8 100 6 0.8 2.5 1010.1 0.0000 0.0000
08:09 2.8 2.8 100 357 1.4 3.3 1010.4 0.0000 0.0000
08:12 2.8 2.8 100 355 1.4 3.3 1010.6 0.0000 0.0000
08:22 2.8 2.8 100 9 0.8 2.5 1010.5 0.0000 0.0000
08:32 2.7 2.7 100 357 1.7 2.8 1010.6 0.0000 0.0000
08:43 2.7 2.7 100 351 0.8 2.5 1010.8 0.0000 0.0000
08:52 2.7 2.7 100 343 1.4 3.3 1011.2 0.0000 0.0000
09:00 2.7 2.7 100 349 0.8 2.5 1011.2 0.0000 0.0000
09:12 2.7 2.7 100 17 0.8 2.2 1011.4 0.0000 0.0000
09:23 2.7 2.7 100 329 0.6 2.2 1011.5 0.0000 0.0000
09:33 2.8 2.8 100 330 0.8 1.9 1011.8 0.0000 0.0000
09:42 2.8 2.8 100 351 0.6 2.2 1011.7 0.0000 0.0000
09:53 2.8 2.8 100 297 0.6 1.9 1011.9 0.0000 0.0000
10:03 2.9 2.9 100 311 0.6 1.7 1012 0.0000 0.0000
10:13 2.9 2.9 100 349 0.6 1.7 1012.3 0.0000 0.0000
10:23 2.9 2.9 100 321 0.6 1.7 1012.6 0.0000 0.0000
10:33 3 3 100 288 0.6 2.2 1012.8 0.0000 0.0000
10:43 3 3 100 344 0.8 2.2 1012.8 0.0000 0.0000
10:53 3.1 3.1 100 328 0.6 1.7 1013.1 0.0000 0.0000
11:04 3.2 3.2 100 270 0.8 2.2 1013.1 0.0000 0.0000
11:13 3.2 3.2 100 297 0.6 1.9 1013.3 0.0000 0.0000
11:23 3.2 3.2 100 315 0.6 1.7 1013.3 0.0000 0.0000
11:33 3.2 3.2 100 305 0.6 1.4 1013.3 0.0000 0.0000
11:44 3.2 3.2 100 331 0.6 1.7 1013.4 0.0000 0.0000
11:54 3.3 3.3 100 296 0.6 1.4 1013.4 0.0000 0.0000
12:03 3.4 3.4 100 327 0.6 1.7 1013.6 0.0000 0.0000
12:12 3.5 3.5 100 270 0.6 1.7 1013.8 0.0000 0.0000
12:24 3.5 3.5 100 270 0.8 1.4 1014.1 0.0000 0.0000
12:34 3.6 3.6 100 270 0.8 1.7 1014.1 0.0000 0.0000
12:44 3.7 3.7 100 306 0.6 1.4 1014.3 0.0000 0.0000
12:54 3.6 3.6 100 330 0.6 1.9 1014.4 0.0000 0.0000
13:03 3.6 3.6 100 348 0.6 1.4 1014.5 0.0000 0.0000
13:14 3.7 3.7 100 0 0.3 0.6 1014.7 0.0000 0.0000
13:25 3.8 3.8 100 302 0.6 1.4 1014.8 0.0000 0.0000
13:35 3.9 3.9 100 291 0.6 1.4 1015 0.0000 0.0000
13:44 4 4 100 287 0.8 1.9 1015.2 0.0000 0.0000
13:54 4 4 100 270 0.6 1.4 1015.4 0.0000 0.0000
14:05 4 4 100 270 0.8 1.4 1015.5 0.0000 0.0000
14:15 4 4 100 270 0.6 1.7 1015.5 0.0000 0.0000
14:25 4 4 100 270 0.3 0.6 1015.7 0.0000 0.0000
14:35 4 4 100 270 0.3 0.6 1015.8 0.0000 0.0000
14:45 4.1 4.1 100 0 0.6 1016 0.0000 0.0000
14:55 4.1 4.1 100 315 0.3 0.6 1016.2 0.0000 0.0000
15:05 4.2 4.2 100 270 0.3 0.6 1016.3 0.0000 0.0000
15:15 4.2 4.2 100 217 0.3 0.8 1016.5 0.0000 0.0000
15:25 4.1 4.1 100 270 0.3 0.6 1016.6 0.0000 0.0000
15:35 4.1 4.1 100 270 0.3 0.6 1016.8 0.0000 0.0000
15:46 4.1 4.1 100 203 0.3 0.8 1016.8 0.0000 0.0000
16:00 4.1 4.1 100 0 0.3 1017.1 0.0000 0.0000
16:10 4.1 4.1 100 270 0.3 0.6 1017.2 0.0000 0.0000
16:21 3.9 3.9 100 270 0.3 0.6 1017.2 0.0000 0.0000
16:30 3.7 3.7 100 0 0.3 1017.4 0.0000 0.0000
16:40 3.4 3.4 100 0 0.3 1017.7 0.0000 0.0000
17:01 2.8 2.8 100 308 0.3 0.6 1018.1 0.0000 0.0000
17:11 2.7 2.7 100 90 0.3 0.8 1018.3 0.0000 0.0000
17:20 2.6 2.6 100 195 0.3 0.6 1018.5 0.0000 0.0000
17:31 2.6 2.6 100 0 0.3 1018.7 0.0000 0.0000
17:41 2.5 2.5 100 270 0.3 0.6 1018.9 0.0000 0.0000
17:51 2.5 2.5 100 45 0.3 0.8 1019.1 0.0000 0.0000
18:01 2.4 2.4 100 90 0.6 1.4 1019.1 0.0000 0.0000
18:12 2.3 2.3 100 123 0.3 0.6 1019.4 0.0000 0.0000
18:20 2.3 2.3 100 90 0.3 0.6 1019.5 0.0000 0.0000
18:31 2.3 2.3 100 344 0.3 0.6 1019.6 0.0000 0.0000
18:41 2.3 2.3 100 0 0.6 1019.7 0.0000 0.0000
18:52 2.2 2.2 100 90 0.3 0.6 1019.8 0.0000 0.0000
19:02 2.2 2.2 100 9 0.3 0.6 1020 0.0000 0.0000
19:11 2 2 100 30 0.3 0.6 1020.1 0.0000 0.0000
19:22 1.8 1.8 100 135 0.3 0.6 1020.3 0.0000 0.0000
19:32 1.7 1.7 100 90 0.3 0.8 1020.2 0.0000 0.0000
19:42 1.7 1.7 100 90 0.3 0.6 1020.5 0.0000 0.0000
19:52 1.6 1.6 100 0 0.6 1020.5 0.0000 0.0000
20:02 1.2 1.2 100 90 0.3 0.8 1020.7 0.0000 0.0000
20:12 1 1 100 153 0.3 0.6 1020.8 0.0000 0.0000
20:22 0.9 0.9 100 0 0.3 1021.1 0.0000 0.0000
20:32 0.7 0.7 100 0 0.3 1021.2 0.0000 0.0000
20:43 0.5 0.5 100 270 0.3 0.8 1021.4 0.0000 0.0000
20:53 0.3 0.3 100 45 0.3 0.6 1021.5 0.0000 0.0000
21:03 0.2 0.2 100 90 0.3 0.6 1021.7 0.0000 0.0000
21:13 0 0 100 0 0.3 1021.7 0.0000 0.0000
21:23 -0.2 -0.2 100 0 0.3 1021.7 0.0000 0.0000
21:33 -0.3 -0.3 100 270 0.3 0.6 1021.8 0.0000 0.0000
21:44 -0.4 -0.4 100 331 0.3 0.6 1022.1 0.0000 0.0000
21:53 -0.5 -0.5 100 0 0.3 1022.4 0.0000 0.0000
22:03 -0.6 -0.6 100 0 0.6 1022.5 0.0000 0.0000
22:13 -0.6 -0.6 100 0 0.3 1022.6 0.0000 0.0000
22:24 -0.8 -0.8 100 0 0.6 1022.5 0.0000 0.0000
22:34 -0.9 -0.9 100 0 0.3 1022.7 0.0000 0.0000
22:43 -0.9 -0.9 100 0 0.3 1022.9 0.0000 0.0000
22:54 -1 -1 100 0 0.6 1023 0.0000 0.0000
23:04 -1.1 -1.1 100 0 0.3 1023.3 0.0000 0.0000
23:13 -1.2 -1.2 100 0 0.3 1023.4 0.0000 0.0000
23:24 -1.3 -1.3 100 302 0.3 0.6 1023.7 0.0000 0.0000
23:34 -1.4 -1.4 100 320 0.3 0.6 1024 0.0000 0.0000
23:44 -1.3 -1.3 100 6 0.3 0.6 1023.8 0.0000 0.0000
23:53 -1.3 -1.3 100 0 0.3 1023.7 0.0000

DAY STATISTIC

2019-11-14
TEMPERATURE
AVERAGE
2.3
HIGH
4.2
15:05
LOW
-1.4
23:34
PRESSURE
AVERAGE
1014.4
HIGH
1024.0
23:34
LOW
1008.3
01:28
DEWPOINT
AVERAGE
2.3
HIGH
4.2
15:05
LOW
-1.4
23:34
HUMIDITY
AVERAGE
100
HIGH
100
00:18
LOW
100
00:18
WIND SPEED
AVERAGE
0.5
HIGH
1.7
08:32
WIND GUST
AVERAGE
1.3
HIGH
3.3
08:09
WIND DIRECTION
PREVAILING
N
27.7%
N
27.7
NE
7.1
E
6.4
SE
2.1
S
1.4
SW
0.7
W
15.6
NW
24.1
PRECIPITATION
RAIN HOUR
0.0
RAIN DAY
0.0
TEMPERATURE (°C)
LOW
-1.4
HIGH
4.2
AVERAGE
2.3
PRESSURE (hpa)
LOW
1008.3
HIGH
1024.0
AVERAGE
1014.4
DEVICE